Time;durP1;ratioP1;P1;durP2;ratioP2;P2;SDS_P1;SDS_P2;PMS_P1;PMS_P2;Temp;Humidity;BMP_temperature;BMP_pressure;BME280_temperature;BME280_humidity;BME280_pressure;Samples;Min_cycle;Max_cycle;Signal;HPM_P1;HPM_P2
2022/11/22 00:09:50;;;;;;;64.30;27.58;;;12.20;63.80;;;;;;5060291;23;20129;-90
2022/11/22 00:12:21;;;;;;;69.28;29.55;;;12.20;63.40;;;;;;4981206;28;20346;-92
2022/11/22 00:14:47;;;;;;;86.40;31.50;;;12.40;62.80;;;;;;4981022;28;20022;-90
2022/11/22 00:17:13;;;;;;;66.10;28.75;;;12.60;62.40;;;;;;4987964;28;20022;-93
2022/11/22 00:19:39;;;;;;;62.33;27.52;;;12.60;62.10;;;;;;4979803;28;20041;-91
2022/11/22 00:22:06;;;;;;;65.40;30.30;;;12.60;62.20;;;;;;4982812;28;20060;-90
2022/11/22 00:24:32;;;;;;;68.55;28.52;;;12.60;62.90;;;;;;4978827;28;20030;-89
2022/11/22 00:26:58;;;;;;;87.75;29.58;;;12.50;62.20;;;;;;5252056;23;20129;-88
2022/11/22 00:39:54;;;;;;;62.60;30.25;;;11.70;64.20;;;;;;4871778;29;20050;-94
2022/11/22 01:17:23;;;;;;;61.20;25.80;;;12.00;63.80;;;;;;5927515;23;20030;-87
2022/11/22 01:28:51;;;;;;;75.40;26.65;;;12.10;63.60;;;;;;5506564;23;20199;-90
2022/11/22 01:36:28;;;;;;;65.05;27.77;;;12.30;63.50;;;;;;4985217;23;20060;-91
2022/11/22 01:41:29;;;;;;;82.97;28.27;;;12.60;63.20;;;;;;5841705;23;20049;-94
2022/11/22 01:50:02;;;;;;;61.65;25.95;;;12.40;63.20;;;;;;5303242;23;20048;31
2022/11/22 01:53:19;;;;;;;62.70;23.95;;;12.20;63.60;;;;;;4847175;29;20056;-92
2022/11/22 01:55:50;;;;;;;71.57;25.15;;;12.10;63.80;;;;;;4848536;29;20033;-89
2022/11/22 01:58:17;;;;;;;62.35;23.30;;;11.90;63.90;;;;;;4856005;29;20108;-89
2022/11/22 02:00:43;;;;;;;62.10;22.80;;;11.60;65.10;;;;;;4845712;29;20066;-93
2022/11/22 02:03:12;;;;;;;62.55;21.25;;;11.70;65.60;;;;;;4848041;29;20124;-87
2022/11/22 02:05:38;;;;;;;52.67;21.13;;;11.90;64.70;;;;;;4849076;29;20434;-89
2022/11/22 02:08:30;;;;;;;66.78;21.77;;;11.90;64.50;;;;;;4847082;29;20033;-89
2022/11/22 02:11:13;;;;;;;61.47;21.05;;;11.90;64.50;;;;;;4898011;23;20043;-92
2022/11/22 02:16:15;;;;;;;66.75;21.23;;;11.70;65.20;;;;;;6080419;23;20821;-87
2022/11/22 02:18:41;;;;;;;49.53;19.60;;;11.80;64.80;;;;;;4956579;29;20065;-92
2022/11/22 02:29:44;;;;;;;56.03;20.52;;;11.00;67.00;;;;;;5009708;23;20046;-90
2022/11/22 02:51:27;;;;;;;47.28;18.63;;;10.80;66.70;;;;;;5158762;23;20045;-94
2022/11/22 02:56:28;;;;;;;44.35;19.23;;;11.00;65.60;;;;;;5542832;23;20054;-92
2022/11/22 02:58:53;;;;;;;50.70;18.65;;;10.90;65.90;;;;;;4959130;28;20085;-90
2022/11/22 03:01:19;;;;;;;47.33;18.40;;;11.10;66.10;;;;;;4975571;28;20043;-89
2022/11/22 03:03:45;;;;;;;41.83;18.42;;;11.20;65.20;;;;;;4959465;28;20023;-94
2022/11/22 03:06:10;;;;;;;40.63;18.48;;;11.40;64.80;;;;;;4960415;28;20018;-89
2022/11/22 03:08:36;;;;;;;44.38;17.88;;;11.40;63.90;;;;;;4961906;28;20048;-89
2022/11/22 03:11:02;;;;;;;45.88;19.15;;;11.00;65.20;;;;;;4961565;28;20497;-88
2022/11/22 03:13:27;;;;;;;43.20;17.70;;;10.80;66.80;;;;;;4962600;28;20062;-92
2022/11/22 03:15:53;;;;;;;44.25;17.05;;;10.60;66.70;;;;;;4956683;29;20019;-93
2022/11/22 03:18:19;;;;;;;42.08;18.35;;;10.70;67.00;;;;;;4956897;29;20155;-94
2022/11/22 03:20:45;;;;;;;41.30;18.25;;;10.70;66.50;;;;;;4957406;29;20050;-93
2022/11/22 03:23:11;;;;;;;49.70;18.20;;;10.70;66.70;;;;;;4955711;29;20073;-89
2022/11/22 03:25:38;;;;;;;43.70;18.58;;;10.80;66.60;;;;;;4959167;28;20278;-87
2022/11/22 03:28:04;;;;;;;39.58;16.73;;;11.00;66.00;;;;;;4955044;29;20069;-88
2022/11/22 03:30:31;;;;;;;43.30;17.58;;;11.20;65.30;;;;;;4955597;28;20023;-86
2022/11/22 03:32:57;;;;;;;44.92;17.45;;;11.30;65.10;;;;;;4942317;29;20027;-91
2022/11/22 03:35:22;;;;;;;47.63;18.80;;;11.00;65.80;;;;;;4953713;28;20019;-88
2022/11/22 03:37:48;;;;;;;50.90;19.95;;;11.20;65.50;;;;;;4958258;28;20050;-89
2022/11/22 03:40:14;;;;;;;43.83;18.17;;;11.20;65.70;;;;;;4957837;28;20022;-94
2022/11/22 03:42:40;;;;;;;51.42;19.60;;;11.50;64.70;;;;;;4959635;28;20070;-87
2022/11/22 03:45:06;;;;;;;57.85;20.80;;;11.60;65.00;;;;;;4944516;29;20133;-90
2022/11/22 03:47:32;;;;;;;49.45;19.27;;;11.70;64.20;;;;;;4955902;29;20479;-89
2022/11/22 03:49:57;;;;;;;54.33;20.27;;;11.70;64.50;;;;;;4954534;29;20023;-88
2022/11/22 03:52:23;;;;;;;47.08;17.75;;;11.60;64.90;;;;;;4955582;29;20023;-89
2022/11/22 03:54:50;;;;;;;53.53;20.63;;;11.60;64.40;;;;;;4954985;29;20023;-91
2022/11/22 03:57:16;;;;;;;49.38;19.13;;;11.70;64.70;;;;;;4954607;29;20043;-89
2022/11/22 03:59:42;;;;;;;55.80;20.88;;;11.60;64.70;;;;;;4938765;29;20091;-88
2022/11/22 04:02:07;;;;;;;56.88;21.02;;;11.80;64.20;;;;;;4954511;29;20394;-90
2022/11/22 04:04:33;;;;;;;50.22;19.90;;;11.80;64.30;;;;;;4954570;28;20020;-91
2022/11/22 04:06:59;;;;;;;49.58;20.02;;;12.00;63.70;;;;;;4958444;29;20027;-90
2022/11/22 04:09:27;;;;;;;56.53;22.58;;;11.90;64.60;;;;;;4957812;29;20210;-90
2022/11/22 04:11:52;;;;;;;55.88;21.58;;;11.80;64.90;;;;;;4957930;29;20030;-91
2022/11/22 04:17:02;;;;;;;68.97;23.05;;;11.80;64.70;;;;;;4978278;28;20089;-90
2022/11/22 04:19:28;;;;;;;52.20;20.10;;;11.80;64.70;;;;;;4960789;28;20023;-91
2022/11/22 04:21:53;;;;;;;61.38;21.83;;;11.80;64.90;;;;;;4960482;28;20030;-88
2022/11/22 04:27:03;;;;;;;67.63;22.50;;;11.80;64.60;;;;;;4979134;28;20045;-88
2022/11/22 04:29:29;;;;;;;55.33;21.83;;;11.90;64.50;;;;;;4961089;28;20027;-92
2022/11/22 04:34:39;;;;;;;55.20;23.48;;;12.10;64.00;;;;;;4977723;28;20030;-91
2022/11/22 04:37:05;;;;;;;52.40;22.23;;;12.20;64.00;;;;;;4976953;28;20370;-89
2022/11/22 04:39:31;;;;;;;48.42;20.48;;;12.30;63.90;;;;;;4960867;28;20022;-89
2022/11/22 04:44:42;;;;;;;42.33;20.75;;;12.70;62.90;;;;;;4978719;28;20077;-94
2022/11/22 04:52:52;;;;;;;54.85;22.10;;;12.30;64.20;;;;;;4938083;29;20159;-94
2022/11/22 04:52:56;;;;;;;59.13;22.55;;;12.30;64.20;;;;;;4922216;29;20072;-91
2022/11/22 04:55:23;;;;;;;49.78;20.77;;;12.40;63.20;;;;;;4903254;29;20384;-94
2022/11/22 04:57:48;;;;;;;43.42;19.52;;;12.20;63.90;;;;;;4925589;29;20123;-88
2022/11/22 05:00:15;;;;;;;49.28;20.65;;;12.20;64.50;;;;;;4916755;29;20443;-87
2022/11/22 05:02:40;;;;;;;47.55;20.10;;;11.80;64.40;;;;;;4919412;29;20032;-89
2022/11/22 05:05:07;;;;;;;49.97;20.45;;;11.80;65.10;;;;;;4920413;29;20028;-87
2022/11/22 05:07:33;;;;;;;43.65;19.23;;;11.90;64.90;;;;;;4918834;29;20071;-89
2022/11/22 05:10:03;;;;;;;34.88;17.63;;;11.80;65.00;;;;;;4903398;29;20047;-93
2022/11/22 05:12:28;;;;;;;40.03;18.38;;;11.70;65.40;;;;;;4920886;29;20059;-89
2022/11/22 05:14:54;;;;;;;41.30;17.73;;;11.70;65.20;;;;;;4918956;29;20499;-90
2022/11/22 05:17:20;;;;;;;39.35;17.83;;;11.50;66.10;;;;;;4918526;29;20028;-92
2022/11/22 05:19:45;;;;;;;37.97;19.00;;;11.60;64.80;;;;;;4917928;29;20463;-88
2022/11/22 05:22:11;;;;;;;36.35;17.25;;;11.40;66.00;;;;;;4917502;29;20046;-87
2022/11/22 05:24:37;;;;;;;36.00;17.10;;;11.20;66.40;;;;;;4911085;29;20020;-88
2022/11/22 05:27:03;;;;;;;40.42;17.48;;;11.30;65.90;;;;;;4921660;29;20118;-88
2022/11/22 05:29:29;;;;;;;35.75;16.25;;;11.60;65.20;;;;;;4950825;28;20425;-87
2022/11/22 05:31:54;;;;;;;36.35;18.30;;;11.80;64.80;;;;;;4957824;28;20530;-88
2022/11/22 05:34:20;;;;;;;37.97;17.20;;;11.60;64.20;;;;;;4958811;28;20018;-88
2022/11/22 05:36:46;;;;;;;41.85;18.90;;;10.90;66.40;;;;;;4960600;28;20022;-90
2022/11/22 05:39:11;;;;;;;40.33;18.15;;;10.60;67.60;;;;;;4964848;28;20469;-87
2022/11/22 05:41:37;;;;;;;41.30;18.75;;;10.20;69.10;;;;;;4956077;29;20061;-88
2022/11/22 05:44:03;;;;;;;38.80;17.38;;;10.40;68.00;;;;;;4957368;28;20027;-87
2022/11/22 05:46:29;;;;;;;35.05;16.45;;;10.60;68.10;;;;;;4956202;29;20027;-89
2022/11/22 05:48:56;;;;;;;40.05;17.77;;;11.00;66.70;;;;;;4940322;29;20023;-90
2022/11/22 05:51:25;;;;;;;36.25;17.45;;;11.40;66.00;;;;;;4945525;28;20023;-90
2022/11/22 05:53:50;;;;;;;34.58;16.90;;;11.70;64.50;;;;;;4959413;28;20019;-90
2022/11/22 05:56:22;;;;;;;33.65;16.38;;;11.80;63.80;;;;;;4958938;28;20108;-87
2022/11/22 05:58:50;;;;;;;31.35;16.27;;;11.50;63.70;;;;;;4612295;29;9999902;-90
2022/11/22 06:01:21;;;;;;;28.25;15.50;;;11.10;65.10;;;;;;4940996;29;20027;-92
2022/11/22 06:03:47;;;;;;;30.17;15.35;;;10.90;65.50;;;;;;4947378;28;20066;-89
2022/11/22 06:06:17;;;;;;;31.85;16.17;;;10.80;64.50;;;;;;4943825;28;20078;-90
2022/11/22 06:08:46;;;;;;;32.47;15.90;;;10.70;65.30;;;;;;4975592;28;20030;-89
2022/11/22 06:11:17;;;;;;;28.45;16.38;;;10.60;65.70;;;;;;4958748;28;20041;-90
2022/11/22 06:13:44;;;;;;;30.92;15.73;;;10.40;66.10;;;;;;4959063;28;20027;-92
2022/11/22 06:16:11;;;;;;;30.60;16.50;;;10.40;66.30;;;;;;4959320;28;20081;-92
2022/11/22 06:18:36;;;;;;;34.00;16.70;;;10.60;66.00;;;;;;4958172;28;20023;-88
2022/11/22 06:21:06;;;;;;;29.33;15.65;;;10.80;65.30;;;;;;4957810;28;20030;-87
2022/11/22 06:23:31;;;;;;;31.10;15.93;;;11.20;64.00;;;;;;4957597;28;20084;-86
2022/11/22 06:26:05;;;;;;;31.50;16.80;;;10.70;65.30;;;;;;4938741;29;20023;-83
2022/11/22 06:28:33;;;;;;;35.88;18.50;;;10.60;64.70;;;;;;4953800;28;20027;-89
2022/11/22 06:31:28;;;;;;;34.70;17.35;;;10.70;65.50;;;;;;4958933;28;20023;-93
2022/11/22 06:33:58;;;;;;;27.27;15.52;;;11.10;64.70;;;;;;4954963;28;20034;-93
2022/11/22 06:36:32;;;;;;;36.03;17.17;;;11.40;63.10;;;;;;4960586;28;20470;-90
2022/11/22 06:38:59;;;;;;;31.20;16.70;;;11.00;63.90;;;;;;4959669;28;20027;-87
2022/11/22 06:41:36;;;;;;;34.83;18.02;;;11.00;63.80;;;;;;4949443;29;20031;-93
2022/11/22 06:44:06;;;;;;;32.45;17.45;;;11.10;64.20;;;;;;4946364;29;20027;-95
2022/11/22 06:46:33;;;;;;;33.33;17.67;;;11.20;63.80;;;;;;4942726;29;20113;-90
2022/11/22 06:48:59;;;;;;;30.92;17.23;;;11.50;63.10;;;;;;4941244;28;20027;-91
2022/11/22 06:51:28;;;;;;;28.15;16.38;;;11.60;62.60;;;;;;4960150;28;20077;-86
2022/11/22 06:53:55;;;;;;;28.55;17.35;;;11.60;62.30;;;;;;4963706;28;20019;-88
2022/11/22 06:56:26;;;;;;;30.48;16.73;;;11.50;63.20;;;;;;4961294;28;20053;-94
2022/11/22 06:58:52;;;;;;;32.90;17.75;;;11.60;62.50;;;;;;4958929;28;20019;-88
2022/11/22 07:01:27;;;;;;;33.13;18.25;;;11.40;63.10;;;;;;4957778;28;20466;-95
2022/11/22 07:03:56;;;;;;;38.25;19.40;;;11.40;63.00;;;;;;4962341;28;20031;-95
2022/11/22 07:06:34;;;;;;;35.30;18.50;;;11.40;63.10;;;;;;4961779;28;20026;-92
2022/11/22 07:09:32;;;;;;;34.78;18.65;;;11.40;63.40;;;;;;4960417;28;20023;-89
2022/11/22 07:11:58;;;;;;;32.65;17.02;;;11.20;63.30;;;;;;4882557;29;20036;-89
2022/11/22 07:14:49;;;;;;;37.88;19.17;;;11.10;64.00;;;;;;4897048;29;20116;-92
2022/11/22 07:17:29;;;;;;;34.70;18.77;;;11.20;63.30;;;;;;4876487;29;20033;-90
2022/11/22 07:19:55;;;;;;;37.40;20.05;;;11.30;63.60;;;;;;4900468;29;20055;-95
2022/11/22 07:22:22;;;;;;;32.70;17.83;;;11.10;63.80;;;;;;4902449;29;20036;-94
2022/11/22 07:24:49;;;;;;;37.50;19.30;;;11.30;63.60;;;;;;4900393;29;20021;-86
2022/11/22 07:27:17;;;;;;;32.65;18.58;;;11.60;62.90;;;;;;4900104;29;20141;-87
2022/11/22 07:29:42;;;;;;;34.80;18.83;;;11.70;63.00;;;;;;4900889;29;20028;-85
2022/11/22 07:32:08;;;;;;;41.10;22.48;;;11.80;62.80;;;;;;4898130;29;20035;-86
2022/11/22 07:34:34;;;;;;;35.17;20.08;;;11.80;62.90;;;;;;4896887;29;20036;-88
2022/11/22 07:37:05;;;;;;;39.47;20.63;;;11.70;62.20;;;;;;4898890;29;20029;-88
2022/11/22 07:39:30;;;;;;;36.38;19.08;;;11.40;63.20;;;;;;4884487;29;20053;-88
2022/11/22 07:41:56;;;;;;;36.55;19.20;;;11.60;63.20;;;;;;4885766;29;20071;-87
2022/11/22 07:44:22;;;;;;;32.17;18.05;;;11.70;63.10;;;;;;4901841;29;20024;-88
2022/11/22 07:46:48;;;;;;;40.35;21.40;;;11.40;63.20;;;;;;4903588;29;20387;-90
2022/11/22 07:49:14;;;;;;;35.15;18.13;;;11.20;64.20;;;;;;4959058;28;20484;-91
2022/11/22 07:51:40;;;;;;;33.63;17.33;;;11.00;64.70;;;;;;4981627;28;20022;-88
2022/11/22 07:54:05;;;;;;;31.05;15.77;;;11.20;64.70;;;;;;4964319;28;20042;-85
2022/11/22 07:56:34;;;;;;;42.33;20.50;;;11.30;63.60;;;;;;4958258;28;20098;-90
2022/11/22 07:59:00;;;;;;;32.75;16.98;;;11.30;64.30;;;;;;4965797;28;20028;-86
2022/11/22 08:01:26;;;;;;;31.10;16.65;;;11.40;63.90;;;;;;4963800;28;20049;-87
2022/11/22 08:03:52;;;;;;;29.10;16.63;;;11.30;63.60;;;;;;4964927;28;20374;-86
2022/11/22 08:06:20;;;;;;;34.55;18.65;;;10.90;64.70;;;;;;4958161;28;20020;-93
2022/11/22 08:08:58;;;;;;;26.23;14.40;;;10.70;65.20;;;;;;4981850;28;20026;-87
2022/11/22 08:11:23;;;;;;;27.42;16.02;;;10.90;65.00;;;;;;4960152;28;20036;-92
2022/11/22 08:13:49;;;;;;;23.10;13.32;;;10.80;65.40;;;;;;4978007;28;20102;-86
2022/11/22 08:16:16;;;;;;;33.15;18.08;;;10.80;65.20;;;;;;4973613;28;20035;-86
2022/11/22 08:18:47;;;;;;;32.25;17.50;;;10.70;64.70;;;;;;4962696;28;20027;-91
2022/11/22 08:21:15;;;;;;;31.35;17.85;;;10.80;64.50;;;;;;4945529;28;20110;-90
2022/11/22 08:23:42;;;;;;;23.30;14.05;;;10.70;64.50;;;;;;4962764;28;20054;-91
2022/11/22 08:26:11;;;;;;;24.10;13.35;;;10.80;64.10;;;;;;4618508;28;9999612;-85
2022/11/22 08:28:37;;;;;;;23.63;13.13;;;10.40;64.80;;;;;;4962071;28;20026;-86
2022/11/22 08:31:11;;;;;;;51.88;26.85;;;10.00;66.80;;;;;;4962197;28;20014;-88
2022/11/22 08:33:42;;;;;;;76.43;36.80;;;10.30;66.80;;;;;;4960882;29;20375;-92
2022/11/22 08:36:13;;;;;;;33.50;18.40;;;10.70;65.10;;;;;;4961819;29;20034;-93
2022/11/22 08:38:39;;;;;;;31.95;17.33;;;10.70;64.90;;;;;;4959212;29;20027;-90
2022/11/22 08:41:24;;;;;;;25.05;14.05;;;10.50;65.50;;;;;;4965598;29;20054;-89
2022/11/22 08:43:51;;;;;;;32.83;17.42;;;10.80;65.60;;;;;;4961540;29;20375;-87
2022/11/22 08:46:18;;;;;;;40.25;23.25;;;11.10;64.30;;;;;;4960091;29;20085;-88
2022/11/22 08:48:44;;;;;;;32.55;17.75;;;11.20;63.70;;;;;;4960899;29;20018;-88
2022/11/22 08:51:14;;;;;;;37.60;23.25;;;11.00;64.40;;;;;;4960063;28;20026;-86
2022/11/22 08:53:42;;;;;;;35.25;18.95;;;11.00;64.60;;;;;;4957579;29;20481;-89
2022/11/22 08:56:11;;;;;;;33.65;20.48;;;10.60;65.60;;;;;;4942897;29;20070;-92
2022/11/22 08:58:37;;;;;;;34.58;19.00;;;10.60;66.50;;;;;;4957783;29;20026;-88
2022/11/22 09:01:08;;;;;;;23.25;13.40;;;10.80;66.30;;;;;;4957235;29;20031;-94
2022/11/22 09:03:34;;;;;;;22.52;12.98;;;10.80;65.50;;;;;;4956783;29;20395;-89
2022/11/22 09:06:06;;;;;;;22.70;12.40;;;10.80;65.90;;;;;;4957412;29;20030;-92
2022/11/22 09:08:32;;;;;;;20.90;11.98;;;10.80;64.60;;;;;;4957575;29;20029;-91
2022/11/22 09:11:06;;;;;;;24.40;13.57;;;10.80;65.10;;;;;;4963298;29;20082;-92
2022/11/22 09:13:32;;;;;;;23.65;13.80;;;11.00;64.90;;;;;;4960497;29;20059;-89
2022/11/22 09:16:07;;;;;;;24.75;14.10;;;11.10;64.60;;;;;;4959700;29;20051;-91
2022/11/22 09:18:35;;;;;;;25.27;14.18;;;11.10;63.80;;;;;;4958440;29;20027;-90
2022/11/22 09:21:04;;;;;;;26.13;13.95;;;11.00;65.30;;;;;;4959217;29;20027;-91
2022/11/22 09:23:33;;;;;;;25.20;13.77;;;11.20;64.70;;;;;;4957649;29;20062;-95
2022/11/22 09:26:07;;;;;;;23.42;13.60;;;11.10;65.10;;;;;;4941448;29;20024;-92
2022/11/22 09:28:34;;;;;;;24.63;13.45;;;11.00;64.20;;;;;;4956693;28;20130;-91
2022/11/22 09:31:23;;;;;;;26.30;14.68;;;10.80;65.10;;;;;;4940421;29;20020;-92
2022/11/22 09:33:49;;;;;;;26.67;15.15;;;10.60;65.20;;;;;;4940870;29;20027;-88
2022/11/22 09:36:25;;;;;;;30.35;17.05;;;10.60;65.70;;;;;;4957291;29;20360;-92
2022/11/22 09:38:51;;;;;;;34.85;20.10;;;10.90;65.00;;;;;;4956736;29;20050;-87
2022/11/22 09:41:58;;;;;;;26.05;15.27;;;10.90;65.00;;;;;;4956470;29;20031;-93
2022/11/22 09:44:42;;;;;;;27.55;15.65;;;11.10;65.00;;;;;;4956882;29;20016;-90
2022/11/22 09:47:17;;;;;;;26.67;14.45;;;11.10;64.40;;;;;;4956869;29;20019;-89
2022/11/22 09:49:51;;;;;;;22.85;13.80;;;11.00;65.60;;;;;;4956556;29;20027;-86
2022/11/22 09:52:33;;;;;;;26.10;13.93;;;11.00;64.80;;;;;;4956507;29;20023;-94
2022/11/22 09:55:24;;;;;;;27.73;13.85;;;11.20;65.20;;;;;;4956093;29;20023;-90
2022/11/22 09:58:37;;;;;;;25.10;14.18;;;11.50;64.30;;;;;;4846825;29;20037;-92
2022/11/22 10:01:11;;;;;;;27.15;14.15;;;12.00;63.10;;;;;;4863171;29;20042;-93
2022/11/22 10:04:13;;;;;;;25.02;14.07;;;12.00;62.70;;;;;;4861732;29;20150;-91
2022/11/22 10:07:11;;;;;;;23.83;14.13;;;12.20;62.80;;;;;;4861648;29;20025;-93
2022/11/22 10:09:55;;;;;;;28.90;15.60;;;12.30;62.70;;;;;;4847242;29;20082;-94
2022/11/22 10:13:02;;;;;;;24.45;14.25;;;12.30;62.60;;;;;;4862892;29;20094;-90
2022/11/22 10:15:47;;;;;;;29.45;15.68;;;12.40;62.20;;;;;;4843435;29;20061;-87
2022/11/22 10:18:23;;;;;;;27.80;15.57;;;12.00;63.40;;;;;;4842383;29;20082;-91
2022/11/22 10:20:49;;;;;;;25.52;14.15;;;12.00;63.50;;;;;;4843311;29;20030;-90
2022/11/22 10:23:31;;;;;;;29.65;16.13;;;12.00;63.40;;;;;;4842667;29;20038;-90
2022/11/22 10:26:03;;;;;;;28.08;15.38;;;11.80;63.70;;;;;;4842529;29;20041;-90
2022/11/22 10:28:37;;;;;;;29.25;15.65;;;11.70;64.60;;;;;;4843542;29;20038;-86
2022/11/22 10:31:25;;;;;;;31.75;16.20;;;11.50;64.70;;;;;;4843736;29;20049;-91
2022/11/22 10:34:14;;;;;;;29.85;17.50;;;11.70;64.40;;;;;;4844280;29;20200;-93
2022/11/22 10:36:55;;;;;;;34.08;17.58;;;11.40;64.50;;;;;;4883159;29;20041;-88
2022/11/22 10:39:52;;;;;;;30.23;15.77;;;11.80;64.30;;;;;;4883222;29;20043;-95
2022/11/22 10:42:35;;;;;;;30.27;15.50;;;12.00;63.80;;;;;;4898337;29;20032;-88
2022/11/22 10:45:30;;;;;;;27.40;15.10;;;12.40;62.90;;;;;;4883575;29;20036;-91
2022/11/22 10:48:14;;;;;;;27.80;14.95;;;12.60;62.80;;;;;;4845769;29;20045;-92
2022/11/22 10:51:13;;;;;;;26.35;14.80;;;12.90;61.80;;;;;;4861351;29;20127;-91
2022/11/22 10:54:02;;;;;;;27.88;15.63;;;12.70;61.90;;;;;;4860466;29;20030;-93
2022/11/22 10:56:49;;;;;;;27.63;16.10;;;12.60;62.20;;;;;;4846067;29;20097;-91
2022/11/22 10:59:43;;;;;;;27.52;15.07;;;12.50;62.90;;;;;;4860248;29;20128;-94
2022/11/22 11:02:35;;;;;;;30.20;15.95;;;12.30;62.70;;;;;;4845446;29;20046;-88
2022/11/22 11:05:24;;;;;;;26.70;15.80;;;12.40;63.00;;;;;;4838834;29;20120;-93
2022/11/22 11:07:51;;;;;;;29.70;16.48;;;12.70;62.30;;;;;;4845921;29;20042;-95
2022/11/22 11:10:20;;;;;;;31.23;17.70;;;12.70;62.60;;;;;;4848132;29;20030;-91
2022/11/22 11:12:55;;;;;;;33.70;17.52;;;12.90;62.10;;;;;;4846604;29;20033;-90
2022/11/22 11:15:40;;;;;;;32.25;17.50;;;13.00;61.60;;;;;;4860826;29;20170;-84
2022/11/22 11:18:25;;;;;;;32.45;16.60;;;13.20;61.30;;;;;;4845125;29;20370;-88
2022/11/22 11:20:54;;;;;;;32.78;17.23;;;12.70;62.50;;;;;;4845007;29;20052;-94
2022/11/22 11:23:19;;;;;;;31.77;17.50;;;12.40;62.60;;;;;;4844611;29;20088;-87
2022/11/22 11:25:47;;;;;;;28.83;17.23;;;12.10;64.10;;;;;;4933203;29;20423;-88
2022/11/22 11:28:19;;;;;;;33.47;17.60;;;12.20;63.90;;;;;;4939197;28;20031;-87
2022/11/22 11:30:49;;;;;;;33.13;17.38;;;12.00;63.80;;;;;;4938295;29;20027;-88
2022/11/22 11:33:29;;;;;;;30.27;16.45;;;11.90;64.20;;;;;;4939034;29;20062;-90
2022/11/22 11:36:01;;;;;;;32.42;17.40;;;12.10;64.70;;;;;;4954828;29;20026;-89
2022/11/22 11:38:36;;;;;;;34.13;18.30;;;12.50;63.20;;;;;;4955956;29;20019;-87
2022/11/22 11:41:26;;;;;;;32.70;17.45;;;12.50;63.10;;;;;;4955438;29;20028;-85
2022/11/22 11:43:57;;;;;;;32.65;17.98;;;12.10;64.40;;;;;;4955044;29;20030;-92
2022/11/22 11:46:43;;;;;;;33.13;18.08;;;12.30;63.70;;;;;;4957226;29;20027;-87
2022/11/22 11:49:14;;;;;;;31.88;17.98;;;12.60;63.20;;;;;;4955246;29;20027;-89
2022/11/22 11:51:43;;;;;;;35.45;19.40;;;12.60;62.80;;;;;;4956104;29;20026;-87
2022/11/22 11:54:15;;;;;;;35.30;18.33;;;12.40;63.70;;;;;;4956471;29;20074;-90
2022/11/22 11:56:59;;;;;;;31.23;17.60;;;12.50;63.20;;;;;;4955906;29;20031;-92
2022/11/22 11:59:37;;;;;;;30.48;17.40;;;12.50;63.30;;;;;;4939778;29;20039;-86
2022/11/22 12:02:09;;;;;;;33.03;18.38;;;12.70;63.40;;;;;;4955471;29;20047;-88
2022/11/22 12:04:47;;;;;;;30.75;18.17;;;12.70;62.90;;;;;;4955690;29;20031;-87
2022/11/22 12:07:21;;;;;;;32.60;17.45;;;12.90;62.90;;;;;;4955564;29;20027;-88
2022/11/22 12:09:49;;;;;;;29.02;16.95;;;12.80;62.50;;;;;;4955664;29;20378;-88
2022/11/22 12:12:36;;;;;;;32.30;17.80;;;12.80;62.60;;;;;;4956586;29;20066;-87
2022/11/22 12:15:06;;;;;;;30.55;18.55;;;12.90;62.40;;;;;;4940286;29;20038;-89
2022/11/22 12:17:46;;;;;;;30.67;18.65;;;12.80;63.30;;;;;;4955189;29;20106;-90
2022/11/22 12:20:20;;;;;;;27.20;17.83;;;13.20;62.00;;;;;;4956120;29;20028;-88
2022/11/22 12:22:48;;;;;;;31.08;17.70;;;13.00;62.30;;;;;;4955772;29;20035;-87
2022/11/22 12:25:35;;;;;;;33.60;18.60;;;12.90;62.80;;;;;;4954891;28;20020;-92
2022/11/22 12:28:30;;;;;;;29.48;17.88;;;12.90;62.90;;;;;;4958160;29;20027;-89
2022/11/22 12:31:06;;;;;;;31.80;17.48;;;13.00;62.50;;;;;;4942914;29;20083;-91
2022/11/22 12:33:46;;;;;;;30.88;17.48;;;12.90;62.30;;;;;;4959067;29;20026;-91
2022/11/22 12:36:21;;;;;;;35.25;18.60;;;12.80;62.20;;;;;;4957209;29;20501;-87
2022/11/22 12:38:52;;;;;;;33.75;18.40;;;12.60;62.80;;;;;;4958462;29;20399;-93
2022/11/22 12:41:21;;;;;;;32.60;18.25;;;12.60;63.20;;;;;;4958749;29;20031;-88
2022/11/22 12:43:58;;;;;;;30.08;17.25;;;13.00;62.50;;;;;;4958676;29;20026;-92
2022/11/22 12:46:46;;;;;;;28.48;16.60;;;12.80;62.30;;;;;;4959142;29;20382;-86
2022/11/22 12:49:33;;;;;;;30.23;17.02;;;12.90;63.10;;;;;;4958980;29;20062;-93
2022/11/22 12:52:08;;;;;;;31.13;18.00;;;12.90;62.20;;;;;;4957912;29;20039;-88
2022/11/22 12:54:48;;;;;;;41.50;22.30;;;12.70;62.80;;;;;;4958866;29;20027;-87
2022/11/22 12:57:23;;;;;;;52.72;26.38;;;12.60;62.70;;;;;;4942591;29;20120;-93
2022/11/22 13:00:01;;;;;;;57.30;30.48;;;12.40;62.90;;;;;;4925948;29;20033;-89
2022/11/22 13:02:48;;;;;;;59.33;32.55;;;12.50;63.20;;;;;;4942796;29;20037;-94
2022/11/22 13:05:24;;;;;;;59.58;32.75;;;12.60;62.70;;;;;;4942149;29;20021;-90
2022/11/22 13:08:07;;;;;;;36.28;21.27;;;12.60;62.40;;;;;;4942782;29;20445;-88
2022/11/22 13:10:48;;;;;;;38.00;20.00;;;12.60;62.60;;;;;;4942231;29;20029;-89
2022/11/22 13:13:38;;;;;;;36.13;21.63;;;12.60;62.40;;;;;;4942223;29;20124;-91
2022/11/22 13:16:10;;;;;;;36.92;21.20;;;12.60;62.70;;;;;;4928252;29;20105;-88
2022/11/22 13:18:54;;;;;;;32.67;20.02;;;12.60;62.60;;;;;;4940740;29;20037;-88
2022/11/22 13:21:31;;;;;;;33.88;19.85;;;12.40;63.30;;;;;;4940623;29;20037;-91
2022/11/22 13:24:48;;;;;;;33.17;18.85;;;12.50;62.80;;;;;;4941111;29;20562;-92
2022/11/22 13:27:22;;;;;;;25.88;16.10;;;12.30;63.20;;;;;;4786496;29;20071;-89
2022/11/22 13:29:52;;;;;;;29.85;17.48;;;12.40;62.70;;;;;;4788613;29;20467;-92
2022/11/22 13:32:22;;;;;;;29.13;17.33;;;12.60;62.60;;;;;;4787087;29;20028;-86
2022/11/22 13:35:12;;;;;;;28.80;17.77;;;12.80;62.10;;;;;;4787800;29;20031;-86
2022/11/22 13:37:44;;;;;;;27.65;16.25;;;13.00;61.90;;;;;;4787666;29;20031;-86
2022/11/22 13:40:22;;;;;;;24.75;15.68;;;12.90;61.80;;;;;;4786163;29;20431;-93
2022/11/22 13:43:09;;;;;;;25.38;14.57;;;12.80;62.00;;;;;;4788221;29;20052;-87
2022/11/22 13:45:48;;;;;;;24.92;14.20;;;12.60;62.40;;;;;;4786770;29;20621;-93
2022/11/22 13:48:37;;;;;;;25.75;14.27;;;12.60;62.60;;;;;;4789312;29;20075;-92
2022/11/22 13:51:07;;;;;;;24.98;14.38;;;12.50;62.40;;;;;;4846999;29;20033;-90
2022/11/22 13:53:36;;;;;;;23.98;14.70;;;12.60;62.40;;;;;;4844605;29;20037;-87
2022/11/22 13:56:14;;;;;;;24.02;14.40;;;12.40;63.10;;;;;;4845827;29;20046;-96
2022/11/22 13:58:39;;;;;;;25.52;14.02;;;12.70;62.50;;;;;;4845544;29;20042;-89
2022/11/22 14:01:50;;;;;;;25.50;13.50;;;12.80;62.10;;;;;;4843250;29;20482;-88
2022/11/22 14:04:17;;;;;;;25.67;13.90;;;13.00;61.10;;;;;;4865390;29;20107;-87
2022/11/22 14:07:04;;;;;;;25.92;14.40;;;12.50;61.90;;;;;;4865368;29;20025;-93
2022/11/22 14:09:54;;;;;;;26.02;14.45;;;12.30;62.40;;;;;;4864923;29;20569;-90
2022/11/22 14:12:38;;;;;;;26.13;14.23;;;12.20;62.80;;;;;;4876495;29;20037;-87
2022/11/22 14:15:41;;;;;;;26.45;14.15;;;12.00;63.20;;;;;;4866086;29;20021;-92
2022/11/22 14:18:56;;;;;;;27.40;14.93;;;11.70;63.60;;;;;;4883987;29;20392;-88
2022/11/22 14:21:28;;;;;;;26.02;14.30;;;11.60;65.50;;;;;;4861244;29;20540;-87
2022/11/22 14:24:43;;;;;;;29.45;16.38;;;11.90;64.30;;;;;;4888487;29;20045;-86
2022/11/22 14:27:42;;;;;;;38.40;17.88;;;12.10;63.50;;;;;;4850039;29;20516;-95
2022/11/22 14:30:50;;;;;;;40.08;22.55;;;11.90;63.60;;;;;;4906304;29;20063;-92
2022/11/22 14:33:20;;;;;;;42.60;24.67;;;11.70;64.60;;;;;;4868257;29;20124;-93
2022/11/22 14:36:05;;;;;;;50.90;28.02;;;11.90;64.70;;;;;;4880558;29;20037;-88
2022/11/22 14:38:34;;;;;;;34.08;18.63;;;12.10;64.00;;;;;;4879835;29;20033;-88
2022/11/22 14:41:27;;;;;;;25.85;15.02;;;12.20;63.50;;;;;;4881591;29;20064;-91
2022/11/22 14:44:20;;;;;;;26.02;14.60;;;11.90;64.10;;;;;;4866679;29;20037;-88
2022/11/22 14:46:56;;;;;;;26.50;14.23;;;11.40;65.80;;;;;;4881192;29;20112;-86
2022/11/22 14:49:37;;;;;;;31.55;18.15;;;11.60;65.20;;;;;;4882157;29;20049;-86
2022/11/22 14:52:11;;;;;;;38.17;22.83;;;11.80;65.00;;;;;;4881322;29;20092;-90
2022/11/22 14:54:47;;;;;;;33.40;19.33;;;11.80;65.00;;;;;;4880616;29;20033;-87
2022/11/22 14:57:20;;;;;;;26.17;14.25;;;12.00;64.60;;;;;;4878606;29;20049;-92
2022/11/22 15:00:04;;;;;;;28.40;14.85;;;12.40;63.80;;;;;;4880978;29;20473;-92
2022/11/22 15:03:13;;;;;;;32.20;18.98;;;12.80;62.70;;;;;;4862676;29;20201;-89